Terminal Aerodrome Forecast
Issued by NWS

Home | Current Version | Previous Version | Text Only | Print | Product List | Glossary On
Versions: 1 2 3 4 5 6 7 8 9 10 11 12 13
000
FTUS44 KLIX 222328
TAFHUM
TAF
KHUM 222328Z 2300/2324 VRB03KT P6SM SCT030 SCT110
      TEMPO 2310/2313 5SM BR
     FM231300 VRB03KT P6SM SCT030 BKN100
     FM231500 01004KT P6SM SCT030 SCT100 PROB30 2316/2318 4SM TSRA
      BKN030CB
     FM231800 10005KT P6SM SCT035 BKN110 PROB30 2320/2323 4SM TSRA
      BKN035CB=

USA.gov is the U.S. government's official web portal to all federal, state and local government web resources and services.